createdAt,value
2018-07-14T00:02:06.207Z,19.60
2018-07-14T00:05:30.652Z,19.50
2018-07-14T00:08:55.091Z,19.50
2018-07-14T00:12:19.497Z,19.50
2018-07-14T00:15:43.940Z,19.50
2018-07-14T00:19:08.398Z,19.40
2018-07-14T00:22:32.837Z,19.40
2018-07-14T00:26:01.704Z,19.30
2018-07-14T00:29:26.170Z,19.20
2018-07-14T00:32:50.646Z,19.20
2018-07-14T00:36:15.078Z,19.20
2018-07-14T00:39:39.485Z,19.10
2018-07-14T00:43:03.912Z,19.00
2018-07-14T00:46:28.391Z,19.00
2018-07-14T00:49:52.806Z,18.90
2018-07-14T00:53:17.286Z,18.80
2018-07-14T00:56:41.733Z,18.80
2018-07-14T01:00:06.282Z,18.80
2018-07-14T01:03:30.744Z,18.70
2018-07-14T01:06:55.168Z,18.60
2018-07-14T01:10:19.607Z,18.60
2018-07-14T01:13:44.070Z,18.50
2018-07-14T01:17:08.475Z,18.50
2018-07-14T01:20:32.900Z,18.50
2018-07-14T01:23:57.354Z,18.40
2018-07-14T01:27:21.797Z,18.30
2018-07-14T01:30:46.252Z,18.30
2018-07-14T01:34:10.663Z,18.20
2018-07-14T01:37:35.179Z,18.20
2018-07-14T01:40:59.580Z,18.20
2018-07-14T01:44:23.987Z,18.20
2018-07-14T01:47:48.424Z,18.10
2018-07-14T01:51:12.855Z,18.00
2018-07-14T01:54:37.292Z,17.90
2018-07-14T01:58:01.828Z,17.90
2018-07-14T02:01:26.300Z,17.80
2018-07-14T02:04:50.806Z,17.80
2018-07-14T02:08:15.221Z,17.80
2018-07-14T02:11:39.663Z,17.70
2018-07-14T02:15:04.336Z,17.70
2018-07-14T02:18:28.754Z,17.60
2018-07-14T02:21:53.178Z,17.60
2018-07-14T02:25:17.598Z,17.60
2018-07-14T02:28:42.044Z,17.50
2018-07-14T02:32:06.497Z,17.50
2018-07-14T02:35:30.929Z,17.40
2018-07-14T02:38:55.412Z,17.40
2018-07-14T02:42:19.864Z,17.30
2018-07-14T02:45:44.314Z,17.30
2018-07-14T02:49:08.748Z,17.30
2018-07-14T02:52:33.197Z,17.20
2018-07-14T02:55:57.614Z,17.20
2018-07-14T02:59:22.119Z,17.10
2018-07-14T03:02:46.587Z,17.10
2018-07-14T03:06:11.036Z,17.00
2018-07-14T03:12:59.790Z,16.90
2018-07-14T03:16:24.132Z,16.80
2018-07-14T03:19:48.586Z,16.80
2018-07-14T03:23:13.018Z,16.80
2018-07-14T03:26:37.438Z,16.70
2018-07-14T03:30:01.874Z,16.70
2018-07-14T03:33:26.266Z,16.60
2018-07-14T03:36:50.669Z,16.60
2018-07-14T03:40:15.157Z,16.50
2018-07-14T03:43:39.580Z,16.50
2018-07-14T03:47:04.065Z,16.40
2018-07-14T03:50:28.530Z,16.40
2018-07-14T03:53:52.996Z,16.40
2018-07-14T03:57:17.655Z,16.40
2018-07-14T04:00:42.112Z,16.50
2018-07-14T04:04:06.585Z,16.40
2018-07-14T04:07:31.031Z,16.50
2018-07-14T04:10:55.494Z,16.50
2018-07-14T04:14:19.958Z,16.50
2018-07-14T04:17:44.379Z,16.50
2018-07-14T04:21:08.801Z,16.50
2018-07-14T04:24:33.247Z,16.50
2018-07-14T04:27:58.200Z,16.50
2018-07-14T04:31:22.594Z,16.50
2018-07-14T04:34:47.406Z,16.50
2018-07-14T04:38:11.795Z,16.60
2018-07-14T04:41:36.232Z,16.60
2018-07-14T04:45:00.689Z,16.70
2018-07-14T04:48:25.106Z,16.70
2018-07-14T04:51:49.511Z,16.80
2018-07-14T04:55:13.920Z,16.80
2018-07-14T04:58:38.437Z,16.90
2018-07-14T05:02:02.859Z,16.90
2018-07-14T05:05:27.271Z,17.00
2018-07-14T05:08:51.712Z,17.10
2018-07-14T05:12:16.124Z,17.20
2018-07-14T05:15:40.561Z,17.20
2018-07-14T05:19:05.007Z,17.30
2018-07-14T05:22:29.426Z,17.30
2018-07-14T05:25:53.847Z,17.40
2018-07-14T05:29:18.258Z,17.40
2018-07-14T05:32:42.743Z,17.50
2018-07-14T05:36:07.195Z,17.60
2018-07-14T05:39:31.629Z,17.60
2018-07-14T05:42:56.102Z,17.70
2018-07-14T05:46:20.550Z,17.70
2018-07-14T05:49:45.002Z,17.80
2018-07-14T05:53:09.431Z,17.90
2018-07-14T05:56:33.893Z,18.00
2018-07-14T05:59:58.375Z,18.10
2018-07-14T06:03:22.861Z,18.10
2018-07-14T06:06:47.288Z,18.20
2018-07-14T06:10:11.718Z,18.20
2018-07-14T06:13:36.229Z,18.30
2018-07-14T06:17:00.719Z,18.30
2018-07-14T06:20:25.200Z,18.40
2018-07-14T06:23:49.658Z,18.50
2018-07-14T06:27:14.327Z,18.50
2018-07-14T06:30:38.809Z,18.60
2018-07-14T06:34:03.359Z,18.60
2018-07-14T06:37:27.852Z,18.70
2018-07-14T06:40:52.343Z,18.70
2018-07-14T06:44:16.810Z,18.70
2018-07-14T06:47:41.311Z,18.70
2018-07-14T06:51:05.802Z,18.80
2018-07-14T06:54:30.295Z,18.90
2018-07-14T06:57:54.922Z,19.00
2018-07-14T07:01:19.319Z,19.00
2018-07-14T07:04:43.961Z,19.10
2018-07-14T07:08:08.744Z,19.20
2018-07-14T07:11:33.175Z,19.40
2018-07-14T07:14:57.713Z,19.30
2018-07-14T07:18:22.166Z,19.40
2018-07-14T07:21:46.604Z,19.50
2018-07-14T07:25:11.067Z,19.50
2018-07-14T07:28:35.480Z,19.60
2018-07-14T07:31:59.979Z,19.70
2018-07-14T07:35:24.417Z,19.90
2018-07-14T07:38:48.908Z,20.00
2018-07-14T07:42:13.444Z,20.00
2018-07-14T07:45:37.897Z,20.10
2018-07-14T07:49:02.400Z,20.30
2018-07-14T07:52:26.958Z,20.50
2018-07-14T07:55:51.383Z,20.60
2018-07-14T07:59:15.888Z,20.70
2018-07-14T08:02:40.356Z,20.80
2018-07-14T08:06:04.839Z,20.90
2018-07-14T08:09:29.320Z,21.00
2018-07-14T08:12:53.748Z,21.20
2018-07-14T08:16:18.179Z,21.40
2018-07-14T08:19:42.706Z,21.50
2018-07-14T08:23:07.163Z,21.60
2018-07-14T08:26:31.630Z,21.70
2018-07-14T08:29:56.092Z,21.80
2018-07-14T08:33:20.620Z,21.90
2018-07-14T08:36:45.046Z,22.00
2018-07-14T08:40:09.481Z,22.20
2018-07-14T08:43:33.925Z,22.30
2018-07-14T08:46:58.403Z,22.40
2018-07-14T08:50:22.830Z,22.60
2018-07-14T08:53:47.302Z,22.70
2018-07-14T08:57:11.730Z,22.90
2018-07-14T09:00:36.181Z,22.90
2018-07-14T09:04:00.654Z,22.90
2018-07-14T09:07:25.078Z,23.00
2018-07-14T09:10:49.510Z,23.10
2018-07-14T09:14:13.965Z,23.20
2018-07-14T09:17:38.375Z,23.30
2018-07-14T09:21:02.819Z,23.50
2018-07-14T09:24:27.250Z,23.60
2018-07-14T09:27:51.703Z,23.80
2018-07-14T09:31:16.200Z,24.00
2018-07-14T09:34:40.736Z,24.20
2018-07-14T09:38:05.298Z,24.20
2018-07-14T09:41:29.708Z,24.60
2018-07-14T09:44:54.172Z,24.90
2018-07-14T09:48:18.699Z,25.20
2018-07-14T09:51:46.194Z,25.30
2018-07-14T09:55:10.690Z,25.40
2018-07-14T09:58:35.202Z,25.70
2018-07-14T10:05:23.823Z,26.10
2018-07-14T10:08:48.272Z,26.40
2018-07-14T10:12:12.713Z,26.60
2018-07-14T10:15:37.160Z,27.10
2018-07-14T10:19:01.601Z,27.40
2018-07-14T10:22:26.028Z,27.70
2018-07-14T10:25:50.652Z,28.10
2018-07-14T10:29:14.920Z,28.50
2018-07-14T10:32:39.383Z,28.90
2018-07-14T10:36:03.834Z,29.70
2018-07-14T10:39:28.288Z,29.80
2018-07-14T10:42:52.726Z,30.40
2018-07-14T10:46:17.236Z,30.70
2018-07-14T10:49:41.677Z,30.80
2018-07-14T10:53:06.200Z,30.50
2018-07-14T10:56:30.671Z,30.80
2018-07-14T10:59:55.121Z,31.60
2018-07-14T11:03:19.587Z,31.80
2018-07-14T11:06:44.141Z,32.40
2018-07-14T11:10:08.597Z,33.20
2018-07-14T11:13:33.018Z,33.50
2018-07-14T11:16:57.500Z,34.10
2018-07-14T11:20:21.968Z,34.60
2018-07-14T11:23:46.408Z,34.70
2018-07-14T11:27:10.899Z,34.50
2018-07-14T11:30:35.358Z,34.80
2018-07-14T11:33:59.945Z,35.60
2018-07-14T11:37:24.418Z,35.80
2018-07-14T11:40:48.869Z,36.00
2018-07-14T11:44:13.369Z,36.00
2018-07-14T11:47:38.155Z,34.90
2018-07-14T11:51:02.576Z,35.80
2018-07-14T11:54:27.048Z,36.30
2018-07-14T11:57:51.488Z,36.50
2018-07-14T12:01:15.998Z,36.90
2018-07-14T12:04:40.511Z,37.30
2018-07-14T12:08:04.992Z,36.40
2018-07-14T12:11:29.448Z,36.60
2018-07-14T12:14:53.954Z,37.00
2018-07-14T12:18:18.427Z,36.80
2018-07-14T12:21:42.924Z,37.00
2018-07-14T12:25:07.371Z,37.30
2018-07-14T12:28:32.082Z,37.70
2018-07-14T12:31:56.576Z,37.60
2018-07-14T12:35:21.023Z,38.00
2018-07-14T12:38:45.451Z,37.10
2018-07-14T12:42:09.955Z,37.30
2018-07-14T12:45:34.416Z,38.10
2018-07-14T12:48:58.863Z,38.30
2018-07-14T12:52:23.318Z,38.40
2018-07-14T12:55:47.768Z,38.60
2018-07-14T12:59:12.214Z,38.60
2018-07-14T13:02:36.707Z,39.10
2018-07-14T13:06:01.231Z,39.10
2018-07-14T13:09:25.634Z,39.20
2018-07-14T13:12:50.075Z,39.10
2018-07-14T13:16:14.509Z,39.30
2018-07-14T13:19:38.942Z,39.40
2018-07-14T13:23:03.410Z,40.10
2018-07-14T13:26:27.870Z,40.30
2018-07-14T13:29:52.330Z,40.20
2018-07-14T13:33:16.742Z,40.30
2018-07-14T13:36:41.220Z,40.00
2018-07-14T13:40:05.665Z,40.60
2018-07-14T13:43:30.123Z,40.70
2018-07-14T13:46:54.560Z,40.80
2018-07-14T13:50:19.029Z,41.40
2018-07-14T13:53:43.507Z,42.00
2018-07-14T13:57:07.983Z,42.10
2018-07-14T14:00:32.455Z,42.90
2018-07-14T14:03:56.915Z,42.60
2018-07-14T14:07:27.525Z,42.50
2018-07-14T14:10:51.982Z,42.70
2018-07-14T14:14:16.438Z,43.10
2018-07-14T14:17:40.935Z,43.00
2018-07-14T14:21:05.368Z,43.10
2018-07-14T14:24:29.816Z,43.40
2018-07-14T14:27:54.250Z,43.50
2018-07-14T14:31:18.710Z,43.70
2018-07-14T14:34:43.161Z,44.00
2018-07-14T14:38:07.722Z,43.80
2018-07-14T14:41:32.223Z,44.20
2018-07-14T14:44:56.700Z,45.00
2018-07-14T14:48:21.199Z,44.70
2018-07-14T14:51:45.651Z,45.10
2018-07-14T14:55:10.127Z,45.20
2018-07-14T14:58:34.607Z,44.80
2018-07-14T15:01:59.072Z,45.80
2018-07-14T15:05:23.499Z,46.20
2018-07-14T15:08:48.007Z,46.50
2018-07-14T15:12:12.447Z,46.40
2018-07-14T15:15:36.882Z,46.20
2018-07-14T15:19:01.322Z,46.40
2018-07-14T15:22:25.730Z,46.90
2018-07-14T15:25:50.187Z,47.10
2018-07-14T15:29:14.614Z,45.50
2018-07-14T15:32:39.097Z,46.00
2018-07-14T15:36:03.475Z,46.30
2018-07-14T15:39:27.943Z,47.00
2018-07-14T15:42:52.383Z,46.30
2018-07-14T15:46:16.828Z,46.10
2018-07-14T15:49:41.306Z,45.70
2018-07-14T15:53:05.766Z,45.70
2018-07-14T15:56:30.252Z,46.10
2018-07-14T15:59:54.693Z,46.80
2018-07-14T16:06:43.301Z,46.70
2018-07-14T16:10:07.735Z,46.40
2018-07-14T16:13:32.187Z,46.50
2018-07-14T16:16:56.635Z,46.30
2018-07-14T16:20:21.063Z,46.40
2018-07-14T16:23:45.576Z,46.00
2018-07-14T16:27:10.502Z,46.10
2018-07-14T16:30:35.105Z,45.10
2018-07-14T16:33:59.544Z,41.90
2018-07-14T16:37:24.004Z,39.30
2018-07-14T16:40:49.135Z,38.20
2018-07-14T16:44:13.525Z,39.10
2018-07-14T16:47:37.998Z,40.10
2018-07-14T16:51:02.465Z,40.60
2018-07-14T16:54:26.906Z,40.80
2018-07-14T16:57:51.376Z,40.30
2018-07-14T17:01:15.846Z,40.30
2018-07-14T17:04:40.311Z,40.10
2018-07-14T17:08:04.772Z,39.50
2018-07-14T17:11:29.232Z,38.30
2018-07-14T17:14:53.676Z,35.90
2018-07-14T17:18:18.148Z,33.90
2018-07-14T17:21:42.584Z,32.80
2018-07-14T17:25:07.091Z,32.20
2018-07-14T17:28:31.556Z,31.30
2018-07-14T17:31:55.996Z,30.60
2018-07-14T17:35:20.446Z,30.30
2018-07-14T17:38:44.896Z,30.10
2018-07-14T17:42:09.386Z,29.90
2018-07-14T17:45:34.013Z,29.70
2018-07-14T17:48:58.439Z,29.50
2018-07-14T17:55:47.079Z,28.80
2018-07-14T17:59:11.620Z,28.50
2018-07-14T18:02:36.093Z,28.40
2018-07-14T18:06:00.554Z,28.30
2018-07-14T18:09:25.046Z,28.20
2018-07-14T18:12:49.494Z,28.00
2018-07-14T18:16:14.029Z,27.80
2018-07-14T18:19:38.544Z,27.80
2018-07-14T18:23:03.131Z,27.70
2018-07-14T18:26:27.579Z,27.40
2018-07-14T18:29:52.030Z,27.30
2018-07-14T18:33:16.552Z,27.10
2018-07-14T18:36:41.027Z,26.90
2018-07-14T18:40:05.567Z,26.90
2018-07-14T18:43:30.077Z,26.80
2018-07-14T18:46:54.599Z,26.60
2018-07-14T18:50:19.080Z,26.50
2018-07-14T18:53:43.546Z,26.50
2018-07-14T18:57:08.087Z,26.30
2018-07-14T19:00:32.544Z,26.10
2018-07-14T19:03:57.061Z,26.00
2018-07-14T19:07:21.523Z,26.00
2018-07-14T19:10:45.959Z,25.90
2018-07-14T19:14:10.446Z,25.80
2018-07-14T19:17:34.908Z,25.60
2018-07-14T19:20:59.416Z,25.50
2018-07-14T19:24:23.839Z,25.30
2018-07-14T19:27:48.301Z,25.20
2018-07-14T19:34:37.036Z,25.00
2018-07-14T19:38:01.445Z,24.80
2018-07-14T19:41:25.916Z,24.70
2018-07-14T19:44:50.323Z,24.60
2018-07-14T19:48:15.579Z,24.50
2018-07-14T19:51:40.025Z,24.40
2018-07-14T19:55:04.603Z,24.20
2018-07-14T19:58:29.096Z,24.10
2018-07-14T20:01:53.539Z,23.90
2018-07-14T20:05:17.964Z,23.80
2018-07-14T20:08:42.391Z,23.60
2018-07-14T20:12:07.040Z,23.50
2018-07-14T20:15:31.458Z,23.50
2018-07-14T20:18:55.943Z,23.30
2018-07-14T20:22:20.399Z,23.20
2018-07-14T20:25:44.806Z,23.10
2018-07-14T20:29:09.280Z,23.00
2018-07-14T20:32:33.709Z,22.90
2018-07-14T20:35:58.164Z,22.80
2018-07-14T20:39:22.616Z,22.70
2018-07-14T20:42:47.085Z,22.50
2018-07-14T20:46:11.565Z,22.50
2018-07-14T20:49:35.996Z,22.40
2018-07-14T20:53:00.434Z,22.30
2018-07-14T20:56:24.917Z,22.30
2018-07-14T20:59:49.379Z,22.20
2018-07-14T21:03:13.869Z,22.20
2018-07-14T21:06:38.311Z,22.10
2018-07-14T21:10:02.833Z,22.10
2018-07-14T21:13:27.324Z,22.00
2018-07-14T21:16:51.842Z,21.90
2018-07-14T21:20:16.259Z,21.80
2018-07-14T21:23:40.730Z,21.70
2018-07-14T21:27:05.452Z,21.70
2018-07-14T21:30:29.914Z,21.60
2018-07-14T21:33:54.403Z,21.60
2018-07-14T21:37:18.845Z,21.50
2018-07-14T21:40:43.309Z,21.40
2018-07-14T21:44:07.764Z,21.30
2018-07-14T21:47:32.185Z,21.20
2018-07-14T21:50:56.632Z,21.00
2018-07-14T21:54:21.118Z,21.00
2018-07-14T21:57:45.615Z,20.90
2018-07-14T22:01:15.464Z,20.90
2018-07-14T22:04:39.930Z,20.80
2018-07-14T22:08:04.429Z,20.70
2018-07-14T22:11:28.936Z,20.60
2018-07-14T22:14:53.463Z,20.50
2018-07-14T22:18:17.922Z,20.50
2018-07-14T22:21:42.365Z,20.30
2018-07-14T22:25:06.808Z,20.30
2018-07-14T22:28:31.261Z,20.20
2018-07-14T22:31:55.708Z,20.10
2018-07-14T22:35:20.187Z,20.10
2018-07-14T22:38:44.619Z,20.10
2018-07-14T22:42:09.078Z,20.00
2018-07-14T22:45:33.570Z,19.80
2018-07-14T22:48:58.006Z,19.80
2018-07-14T22:52:22.416Z,19.70
2018-07-14T22:55:46.841Z,19.70
2018-07-14T22:59:11.300Z,19.60
2018-07-14T23:02:35.713Z,19.70
2018-07-14T23:06:00.161Z,19.70
2018-07-14T23:09:24.610Z,19.70
2018-07-14T23:12:49.038Z,19.70
2018-07-14T23:16:13.571Z,19.70
2018-07-14T23:19:37.984Z,19.70
2018-07-14T23:23:02.415Z,19.80
2018-07-14T23:26:26.835Z,19.70
2018-07-14T23:29:51.270Z,19.70
2018-07-14T23:33:15.751Z,19.60
2018-07-14T23:36:40.241Z,19.60
2018-07-14T23:40:04.887Z,19.50
2018-07-14T23:43:29.344Z,19.50
2018-07-14T23:46:53.814Z,19.50
2018-07-14T23:50:18.220Z,19.40
2018-07-14T23:53:42.693Z,19.40
2018-07-14T23:57:07.708Z,19.40
